x

Tillamook, Or - 85 Nm Wnw Of Tillamook, Or (46089) Wave Buoy

1:50am - Sat 19th Apr 2014 All times are PDT. -7 hours from GMT.

  • Sig Wave height 5.2ft
  • Swell Direction
  • Peak Period 14s
  • Average Period 7s
  • Wind
    11mph, 16mph gusts
  • Sea Temp 50°f
  • Air Temp 51°f
  • Sea Pressure 1008.2mb
  • Tillamook, Or - 85 Nm Wnw Of Tillamook, Or
  • Tillamook, Or - 85 Nm Wnw Of Tillamook, Or

More Historic Weather Station data

Upgrade to MSW Pro to gain access to the past 30 days of data for over 8000 Wavebouys and Weather Stations around the globe.

Join Pro

Comparision Forecast

View Surf forecast
   
Sat 04/19 1:50am 5ft 14s 7s 11 16 mph 1008.2mb 50f 51f
12:50am 6.5ft 14s 8s 11 13 mph 1009.4mb 50f 51f
Fri 04/18 11:50pm 6ft 14s 8s 9 16 mph 1010.1mb 51f 51f
10:50pm 7ft 13s 8s 11 13 mph 1010.9mb 51f 51f
9:50pm 8ft 9s 8s 11 16 mph 1011.8mb 51f 51f
8:50pm 7.5ft 10s 8s 11 16 mph 1012.5mb 51f 50f
7:50pm 7.5ft 9s 8s 11 16 mph 1013.4mb 51f 50f
6:50pm 7ft 11s 8s 9 13 mph 1014.7mb 51f 50f
5:50pm 7.5ft 10s 8s 9 11 mph 1015.9mb 51f 50f
4:50pm 7ft 11s 8s 7 11 mph 1017.2mb 51f 50f
3:50pm 7ft 11s 8s 9 13 mph 1017.9mb 51f 50f
2:50pm 7.5ft 11s 8s 7 11 mph 1019mb 51f 50f
1:50pm 8ft 11s 8s 7 9 mph 1019.9mb 51f 50f
12:50pm 8ft 10s 8s 7 11 mph 1020.5mb 51f 49f
11:50am 8ft 11s 7s 4 9 mph 1020.7mb 51f 49f
10:50am 8ft 11s 7s 7 11 mph 1020.4mb 50f 49f
9:50am 8ft 11s 7s 2 4 mph 1020.8mb 50f 49f
8:50am 10ft 11s 8s 2 4 mph 1020.7mb 50f 49f
7:50am 9ft 8s 7s 4 7 mph 1020.1mb 50f 49f
6:50am 9ft 11s 7s 4 7 mph 1019.8mb 50f 49f
5:50am 10ft 10s 8s 7 11 mph 1019.5mb 50f 49f
4:50am 8.5ft 10s 7s 9 11 mph 1019.2mb 50f 49f
3:50am 9ft 10s 7s 7 11 mph 1019.1mb 50f 49f
2:50am 9ft 11s 7s 7 11 mph 1018.9mb 50f 49f
1:50am 9ft 11s 8s 11 13 mph 1018.6mb 50f 49f
12:50am 9.5ft 10s 7s 11 13 mph 1018.2mb 50f 49f
Thu 04/17 11:50pm 9ft 11s 7s 11 16 mph 1018mb 50f 49f
10:50pm 9.5ft 11s 7s 13 20 mph 1017.4mb 50f 49f
9:50pm 10.5ft 10s 7s 13 20 mph 1016.9mb 50f 49f
8:50pm 11ft 11s 7s 13 18 mph 1015.8mb 50f 49f
7:50pm 10ft 11s 7s 16 22 mph 1014.9mb 50f 50f
6:50pm 11ft 11s 7s 16 25 mph 1014.2mb 50f 50f
5:50pm 11ft 9s 7s 16 25 mph 1013.2mb 50f 50f
4:50pm 10ft 11s 6s 18 22 mph 1012mb 50f 49f
3:50pm 9.5ft 11s 6s 18 25 mph 1010.9mb 50f 50f
2:50pm 9ft 11s 6s 18 25 mph 1009.6mb 50f 49f
1:50pm 8ft 11s 6s 20 29 mph 1007.7mb 50f 51f
12:50pm 9ft 11s 6s 16 22 mph 1008mb 50f 51f
11:50am 8ft 12s 7s 18 22 mph 1008.3mb 50f 51f
10:50am 9ft 11s 7s 16 22 mph 1008.8mb 50f 51f
9:50am 9ft 11s 7s 16 18 mph 1009.2mb 50f 51f
8:50am 8.5ft 11s 7s 13 18 mph 1009.9mb 50f 51f
7:50am 9ft 11s 7s 16 22 mph 1010.3mb 50f 51f
6:50am 7.5ft 12s 7s 13 18 mph 1010.6mb 51f 51f
5:50am 8ft 11s 8s 11 16 mph 1011.2mb 51f 51f
4:50am 8ft 12s 8s 11 16 mph 1011.7mb 51f 51f
3:50am 9ft 11s 8s 11 16 mph 1012mb 51f 51f
2:50am 8ft 11s 8s 13 16 mph 1012.3mb 51f 51f
1:50am 8.5ft 11s 8s 11 13 mph 1013.2mb 51f 51f
12:50am 9.5ft 11s 9s 11 13 mph 1014.2mb 51f 51f
Wed 04/16 11:50pm 8.5ft 11s 8s 11 16 mph 1014.5mb 51f 51f
10:50pm 9.5ft 11s 8s 13 18 mph 1015mb 51f 51f
9:50pm 9ft 12s 8s 7 9 mph 1015.2mb 51f 51f
8:50pm 9ft 11s 8s 9 11 mph 1015.2mb 50f 51f
7:50pm 8.5ft 12s 8s 11 16 mph 1015.6mb 51f 51f
6:50pm 8.5ft 11s 8s 11 13 mph 1015.8mb 51f 51f
5:50pm 8.5ft 11s 8s 11 13 mph 1015.9mb 51f 51f
4:50pm 8.5ft 13s 8s 9 13 mph 1016mb 51f 51f
3:50pm 8.5ft 10s 8s 9 11 mph 1016.6mb 51f 51f
2:50pm 7.5ft 14s 8s 9 13 mph 1016.8mb 51f 51f
1:50pm 7ft 14s 8s 11 16 mph 1017.1mb 51f 51f
12:50pm 7.5ft 10s 7s 11 16 mph 1017.3mb 51f 51f
11:50am 7ft 11s 7s 11 13 mph 1017.6mb 51f 51f
10:50am 8ft 11s 7s 13 16 mph 1017.8mb 51f 51f
9:50am 8ft 10s 6s 13 18 mph 1017.6mb 51f 51f
8:50am 8ft 9s 6s 16 20 mph 1017.6mb 51f 51f
7:50am 6.5ft 10s 6s 16 18 mph 1017.8mb 51f 51f
6:50am 8ft 8s 7s 13 18 mph 1018mb 51f 51f
5:50am 8ft 10s 7s 11 18 mph 1018.1mb 51f 51f
4:50am 7ft 12s 7s 11 16 mph 1018.7mb 51f 51f
3:50am 7.5ft 10s 7s 11 16 mph 1018.9mb 51f 51f
2:50am 7ft 10s 7s 11 18 mph 1019.2mb 51f 51f
1:50am 7ft 10s 7s 11 18 mph 1019.7mb 51f 51f
12:50am 7ft 10s 7s 11 16 mph 1020mb 51f 51f
Tue 04/15 11:50pm 7ft 8s 7s 9 13 mph 1020.4mb 51f 51f
10:50pm 7ft 10s 7s 11 16 mph 1020.8mb 51f 51f
9:50pm 7.5ft 8s 7s 13 18 mph 1021.2mb 51f 51f
8:50pm 7.5ft 10s 7s 13 18 mph 1020.9mb 51f 50f
7:50pm 7.5ft 9s 7s 13 18 mph 1021.3mb 52f 50f
6:50pm 7ft 11s 7s 13 18 mph 1021.6mb 52f 51f
5:50pm 8ft 11s 7s 13 18 mph 1022.1mb 52f 50f
4:50pm 8ft 11s 7s 16 20 mph 1022.6mb 52f 50f
3:50pm 8ft 11s 7s 13 18 mph 1022.7mb 52f 51f
2:50pm 8ft 11s 7s 16 20 mph 1023mb 52f 50f
1:50pm 9ft 11s 8s 13 18 mph 1023.6mb 52f 50f
12:50pm 8ft 11s 7s 13 16 mph 1024.2mb 52f 51f
11:50am 8.5ft 11s 8s 13 16 mph 1024.6mb 51f 51f
10:50am 8ft 11s 8s 11 13 mph 1024.8mb 51f 51f